Hovedside
METAR-TAF:

METAR-TAF

Lufthavner :

Yakima, Washington, USA

breddegrad: 46-33-51N, lengdegrad: 120-32-01W, høyde over havet: 333 m

Gjeldene værobservasjon

Denne rapporten ble laget for 44 minutter siden, klokken 01:53 UTC
Vind 14 kt fra Nord-nordvest
Temperatur 26°C
Luftfuktighet 26%
Trykk 1015 hPa
Sikt: 16.1 km
Skyfri himmel

METAR: KYKM 270153Z 33014KT 10SM CLR 26/05 A2997 RMK AO2 SLP145 T02610050

Tid: 19:37 (02:37 UTC)

Varsel

Denne rapporten ble laget for 3 timer og 17 minutter siden, klokken 23:20 UTC
Varsel gyldig fra 27. klokken 00 UTC til 27. klokken 24 UTC
Vind 9 kt fra Vest-nordvest
Sikt: 10 km
Spredte skyer i en høyde av 20000 ft
Brutte skyer i en høyde av 25000 ft
Fra 27. klokken 1700 UTC
Vind 4 kt fra skiftende retning
Sikt: 10 km
Spredte skyer i en høyde av 25000 ft

TAF: KYKM 262320Z 2700/2724 30009KT P6SM SCT200 BKN250 FM271700 VRB04KT P6SM SCT250

Værobservasjoner og værvarsel for over 4000 flyplasser (METAR- og TAF-rapporter).

Tilgjengelige stasjoner er representert av de røde og gule prikkene på kartet.

Hold musepekeren over prikken for å se navnet på stasjonen.

Klikk så for å se værobservasjoner og -varsler.

For å forandre kartet kan du klikke på den grønne knappen med svart kryss for å zoome inn, på den grønne knappen med strek for å zoome ut, eller på de grønne pilene for å se tilstøtende kart.


METAR-TAF: